Time;durP1;ratioP1;P1;durP2;ratioP2;P2;SDS_P1;SDS_P2;PMS_P1;PMS_P2;Temp;Humidity;BMP_temperature;BMP_pressure;BME280_temperature;BME280_humidity;BME280_pressure;Samples;Min_cycle;Max_cycle;Signal;HPM_P1;HPM_P2
2022/02/17 00:00:24;;;;;;;3.60;2.50;;;;;;;;;;5033621;28;20170;-58
2022/02/17 00:02:54;;;;;;;7.27;2.80;;;;;;;;;;5037177;28;20752;-58
2022/02/17 00:05:20;;;;;;;5.63;2.90;;;;;;;;;;5035222;28;20219;-58
2022/02/17 00:07:47;;;;;;;6.60;3.63;;;;;;;;;;5024762;28;20603;-57
2022/02/17 00:10:13;;;;;;;5.93;4.13;;;;;;;;;;5029115;28;20188;-58
2022/02/17 00:12:40;;;;;;;6.80;3.50;;;;;;;;;;5011687;28;20190;-58
2022/02/17 00:15:07;;;;;;;7.83;3.30;;;;;;;;;;5018749;28;20206;-58
2022/02/17 00:17:33;;;;;;;9.87;4.03;;;;;;;;;;5024438;28;20178;-57
2022/02/17 00:20:00;;;;;;;7.57;3.10;;;;;;;;;;5033853;28;20637;-58
2022/02/17 00:22:26;;;;;;;5.70;3.37;;;;;;;;;;5032765;28;20544;-58
2022/02/17 00:24:59;;;;;;;8.50;3.47;;;;;;;;;;5029846;28;20637;-58
2022/02/17 00:27:27;;;;;;;5.73;2.87;;;;;;;;;;5023084;28;20216;-58
2022/02/17 00:29:58;;;;;;;6.63;2.70;;;;;;;;;;5051274;28;20217;-58
2022/02/17 00:32:25;;;;;;;4.53;2.87;;;;;;;;;;5027461;28;20631;-58
2022/02/17 00:34:51;;;;;;;3.37;2.20;;;;;;;;;;5021294;28;20212;-58
2022/02/17 00:37:20;;;;;;;7.30;3.07;;;;;;;;;;5016599;28;20256;-58
2022/02/17 00:39:49;;;;;;;6.33;2.90;;;;;;;;;;5038364;28;20181;-58
2022/02/17 00:42:15;;;;;;;4.47;2.43;;;;;;;;;;5050241;28;20225;-58
2022/02/17 00:44:42;;;;;;;4.77;2.67;;;;;;;;;;5019155;28;20186;-57
2022/02/17 00:47:11;;;;;;;5.23;2.63;;;;;;;;;;5020970;28;20658;-58
2022/02/17 00:49:37;;;;;;;7.20;2.60;;;;;;;;;;5016588;28;20189;-58
2022/02/17 00:52:07;;;;;;;4.57;2.60;;;;;;;;;;5029921;28;20182;-58
2022/02/17 00:54:37;;;;;;;2.40;1.93;;;;;;;;;;5029536;28;20556;-58
2022/02/17 00:57:03;;;;;;;5.20;2.13;;;;;;;;;;5042169;28;20216;-58
2022/02/17 00:59:30;;;;;;;3.93;2.30;;;;;;;;;;5033254;28;20178;-58
2022/02/17 01:01:57;;;;;;;4.47;2.00;;;;;;;;;;5018704;28;20217;-58
2022/02/17 01:04:29;;;;;;;3.83;2.00;;;;;;;;;;5011938;28;20173;-57
2022/02/17 01:06:56;;;;;;;6.27;2.10;;;;;;;;;;5001160;28;20192;-58
2022/02/17 01:09:22;;;;;;;3.90;2.13;;;;;;;;;;5021056;28;20522;-58
2022/02/17 01:11:48;;;;;;;3.70;1.80;;;;;;;;;;5004971;28;20558;-58
2022/02/17 01:14:26;;;;;;;3.00;1.90;;;;;;;;;;5030153;28;20578;-57
2022/02/17 01:16:52;;;;;;;2.47;1.60;;;;;;;;;;5021007;28;20196;-57
2022/02/17 01:19:18;;;;;;;4.70;2.33;;;;;;;;;;5033752;28;20181;-58
2022/02/17 01:21:44;;;;;;;5.70;1.80;;;;;;;;;;5035276;28;20188;-58
2022/02/17 01:24:13;;;;;;;5.37;2.20;;;;;;;;;;5049281;28;20189;-57
2022/02/17 01:26:43;;;;;;;5.20;2.60;;;;;;;;;;5016752;28;20303;-58
2022/02/17 01:29:12;;;;;;;6.17;2.40;;;;;;;;;;5050010;28;20215;-58
2022/02/17 01:31:39;;;;;;;12.10;3.13;;;;;;;;;;5012619;28;20181;-58
2022/02/17 01:34:05;;;;;;;4.30;2.67;;;;;;;;;;5006915;28;20197;-58
2022/02/17 01:36:32;;;;;;;5.17;2.77;;;;;;;;;;5010841;28;20181;-58
2022/02/17 01:38:58;;;;;;;5.63;2.63;;;;;;;;;;5035776;28;20235;-58
2022/02/17 01:41:24;;;;;;;6.17;2.40;;;;;;;;;;5022320;28;20170;-57
2022/02/17 01:44:02;;;;;;;4.20;1.93;;;;;;;;;;5042721;28;20918;-57
2022/02/17 01:46:46;;;;;;;5.07;2.20;;;;;;;;;;5012635;28;20173;-57
2022/02/17 01:49:12;;;;;;;6.27;2.10;;;;;;;;;;5028257;28;20184;-57
2022/02/17 01:51:39;;;;;;;3.00;1.90;;;;;;;;;;5034436;28;20181;-58
2022/02/17 01:54:06;;;;;;;3.30;1.70;;;;;;;;;;5037055;28;20224;-57
2022/02/17 01:56:36;;;;;;;6.77;2.10;;;;;;;;;;5029841;28;20563;-57
2022/02/17 01:59:08;;;;;;;6.20;2.33;;;;;;;;;;5037921;28;20203;-58
2022/02/17 02:01:35;;;;;;;8.13;2.27;;;;;;;;;;5039395;28;20557;-57
2022/02/17 02:04:02;;;;;;;6.77;2.37;;;;;;;;;;5030319;28;20193;-57
2022/02/17 02:06:28;;;;;;;3.50;2.00;;;;;;;;;;5034836;28;20184;-58
2022/02/17 02:08:55;;;;;;;3.80;2.40;;;;;;;;;;5033892;28;20189;-58
2022/02/17 02:11:21;;;;;;;6.63;2.53;;;;;;;;;;5033538;28;20177;-57
2022/02/17 02:13:47;;;;;;;5.63;2.40;;;;;;;;;;5028455;28;20216;-58
2022/02/17 02:16:13;;;;;;;4.73;2.53;;;;;;;;;;5005979;28;20178;-57
2022/02/17 02:18:39;;;;;;;7.33;2.67;;;;;;;;;;5032077;28;20173;-58
2022/02/17 02:21:06;;;;;;;5.37;2.83;;;;;;;;;;5037774;28;20178;-57
2022/02/17 02:23:33;;;;;;;4.90;2.60;;;;;;;;;;5025548;28;20180;-57
2022/02/17 02:26:03;;;;;;;4.97;2.50;;;;;;;;;;5024811;28;20301;-57
2022/02/17 02:28:29;;;;;;;12.37;2.90;;;;;;;;;;5034933;28;20188;-57
2022/02/17 02:30:56;;;;;;;12.67;3.80;;;;;;;;;;5033780;28;20185;-57
2022/02/17 02:33:27;;;;;;;8.37;3.80;;;;;;;;;;5018069;28;20188;-58
2022/02/17 02:35:57;;;;;;;7.60;3.47;;;;;;;;;;5018617;28;20276;-58
2022/02/17 02:38:23;;;;;;;8.87;3.83;;;;;;;;;;5043600;28;20296;-58
2022/02/17 02:40:50;;;;;;;7.43;3.20;;;;;;;;;;5008312;28;20552;-58
2022/02/17 02:43:16;;;;;;;8.50;3.10;;;;;;;;;;5041211;28;20177;-57
2022/02/17 02:45:46;;;;;;;8.33;3.23;;;;;;;;;;5054616;28;20181;-58
2022/02/17 02:48:14;;;;;;;8.23;3.40;;;;;;;;;;5036873;28;20211;-57
2022/02/17 02:50:41;;;;;;;8.50;3.07;;;;;;;;;;5024694;28;20641;-58
2022/02/17 02:53:07;;;;;;;11.50;2.60;;;;;;;;;;5018718;28;20926;-58
2022/02/17 02:55:37;;;;;;;9.57;2.30;;;;;;;;;;5017291;28;20255;-58
2022/02/17 02:58:03;;;;;;;8.40;3.00;;;;;;;;;;5025492;28;21388;-57
2022/02/17 03:00:31;;;;;;;11.10;2.37;;;;;;;;;;5032987;28;20177;-57
2022/02/17 03:02:58;;;;;;;7.60;3.07;;;;;;;;;;5020923;28;20443;-57
2022/02/17 03:05:24;;;;;;;10.10;4.07;;;;;;;;;;5006120;28;20265;-57
2022/02/17 03:07:52;;;;;;;8.17;2.77;;;;;;;;;;5024017;28;20224;-57
2022/02/17 03:10:18;;;;;;;6.83;2.60;;;;;;;;;;5042204;28;20201;-57
2022/02/17 03:12:45;;;;;;;10.43;3.60;;;;;;;;;;5035710;28;20186;-58
2022/02/17 03:15:12;;;;;;;9.10;3.43;;;;;;;;;;5029503;28;20206;-57
2022/02/17 03:17:38;;;;;;;11.10;2.93;;;;;;;;;;5045699;28;20548;-58
2022/02/17 03:20:07;;;;;;;9.43;3.47;;;;;;;;;;5037815;28;20184;-57
2022/02/17 03:22:34;;;;;;;11.77;3.37;;;;;;;;;;5032542;28;20177;-58
2022/02/17 03:25:01;;;;;;;11.43;3.97;;;;;;;;;;5030902;28;20584;-58
2022/02/17 03:27:27;;;;;;;7.47;3.13;;;;;;;;;;5043382;28;20663;-58
2022/02/17 03:29:53;;;;;;;7.67;3.13;;;;;;;;;;5022385;28;20182;-58
2022/02/17 03:32:20;;;;;;;9.13;3.37;;;;;;;;;;5036975;28;20228;-58
2022/02/17 03:34:47;;;;;;;11.80;3.87;;;;;;;;;;5018616;28;20213;-58
2022/02/17 03:37:13;;;;;;;13.17;4.53;;;;;;;;;;5035485;28;20981;-58
2022/02/17 03:39:40;;;;;;;17.40;4.13;;;;;;;;;;5023821;28;20174;-58
2022/02/17 03:42:06;;;;;;;9.77;3.57;;;;;;;;;;5042103;28;20712;-58
2022/02/17 03:44:32;;;;;;;11.40;4.57;;;;;;;;;;5021923;28;20186;-58
2022/02/17 03:46:58;;;;;;;9.10;3.20;;;;;;;;;;5024300;28;20623;-58
2022/02/17 03:49:24;;;;;;;8.07;2.90;;;;;;;;;;5038813;28;20705;-58
2022/02/17 03:51:54;;;;;;;10.33;3.47;;;;;;;;;;5037126;28;20699;-58
2022/02/17 03:54:21;;;;;;;10.23;3.60;;;;;;;;;;5042518;28;20197;-58
2022/02/17 03:56:47;;;;;;;9.60;3.80;;;;;;;;;;5039409;28;20582;-58
2022/02/17 03:59:13;;;;;;;12.00;3.33;;;;;;;;;;5038096;28;20169;-58
2022/02/17 04:01:42;;;;;;;9.03;3.27;;;;;;;;;;5030797;28;20568;-58
2022/02/17 04:04:10;;;;;;;8.87;3.70;;;;;;;;;;5034680;28;20526;-58
2022/02/17 04:06:39;;;;;;;15.33;3.80;;;;;;;;;;5015151;28;20174;-58
2022/02/17 04:09:06;;;;;;;12.47;4.23;;;;;;;;;;5046731;28;20177;-58
2022/02/17 04:11:35;;;;;;;10.30;3.33;;;;;;;;;;5011831;28;20178;-58
2022/02/17 04:14:01;;;;;;;11.57;3.67;;;;;;;;;;5030887;28;20953;-58
2022/02/17 04:16:31;;;;;;;12.87;3.83;;;;;;;;;;5039132;28;20227;-58
2022/02/17 04:18:58;;;;;;;9.93;3.13;;;;;;;;;;5012523;28;20231;-58
2022/02/17 04:21:24;;;;;;;10.83;3.47;;;;;;;;;;5040229;28;20709;-58
2022/02/17 04:23:50;;;;;;;12.10;3.13;;;;;;;;;;5034781;28;20240;-58
2022/02/17 04:26:21;;;;;;;12.70;3.23;;;;;;;;;;5041573;28;20208;-58
2022/02/17 04:28:48;;;;;;;13.57;3.20;;;;;;;;;;5022392;28;20662;-58
2022/02/17 04:31:18;;;;;;;8.47;3.47;;;;;;;;;;5017100;28;20180;-59
2022/02/17 04:33:46;;;;;;;9.13;3.50;;;;;;;;;;5042246;28;20265;-58
2022/02/17 04:36:12;;;;;;;12.67;3.90;;;;;;;;;;5017250;28;20186;-58
2022/02/17 04:38:38;;;;;;;19.73;3.47;;;;;;;;;;5023934;28;20245;-58
2022/02/17 04:43:49;;;;;;;11.57;3.97;;;;;;;;;;5038597;28;20235;-58
2022/02/17 04:46:15;;;;;;;10.87;4.97;;;;;;;;;;5034754;28;20170;-58
2022/02/17 04:48:45;;;;;;;13.17;4.53;;;;;;;;;;5040202;28;20652;-58
2022/02/17 04:51:11;;;;;;;14.27;3.97;;;;;;;;;;5028347;28;20511;-58
2022/02/17 04:53:40;;;;;;;9.83;3.37;;;;;;;;;;5037755;28;20481;-57
2022/02/17 04:56:07;;;;;;;10.20;3.80;;;;;;;;;;5029139;28;20181;-58
2022/02/17 04:58:35;;;;;;;12.93;3.57;;;;;;;;;;5056924;28;20683;-57
2022/02/17 05:01:01;;;;;;;12.30;3.90;;;;;;;;;;5033912;28;20177;-58
2022/02/17 05:03:30;;;;;;;11.53;3.80;;;;;;;;;;5032287;28;20173;-57
2022/02/17 05:05:56;;;;;;;19.10;3.77;;;;;;;;;;5015234;28;20185;-58
2022/02/17 05:08:22;;;;;;;13.30;4.50;;;;;;;;;;5037948;28;20603;-57
2022/02/17 05:10:49;;;;;;;15.30;3.60;;;;;;;;;;5038322;28;20653;-57
2022/02/17 05:13:16;;;;;;;16.30;3.67;;;;;;;;;;5020367;28;20212;-58
2022/02/17 05:15:43;;;;;;;12.47;4.40;;;;;;;;;;5042835;28;20599;-58
2022/02/17 05:18:09;;;;;;;16.83;3.93;;;;;;;;;;5044347;28;20178;-58
2022/02/17 05:20:36;;;;;;;12.93;4.63;;;;;;;;;;5037390;28;20696;-58
2022/02/17 05:23:02;;;;;;;13.27;4.13;;;;;;;;;;5024341;28;20176;-58
2022/02/17 05:25:28;;;;;;;12.47;3.77;;;;;;;;;;5038448;28;20794;-57
2022/02/17 05:27:58;;;;;;;11.13;3.30;;;;;;;;;;5020744;28;20186;-57
2022/02/17 05:30:27;;;;;;;9.47;3.33;;;;;;;;;;5002726;28;20206;-58
2022/02/17 05:32:54;;;;;;;13.67;3.97;;;;;;;;;;5003514;28;20188;-58
2022/02/17 05:35:20;;;;;;;21.67;6.20;;;;;;;;;;4993605;28;20205;-58
2022/02/17 05:37:46;;;;;;;17.43;4.20;;;;;;;;;;5019732;28;20188;-58
2022/02/17 05:40:13;;;;;;;13.47;4.13;;;;;;;;;;5004728;28;20257;-58
2022/02/17 05:42:40;;;;;;;15.20;4.70;;;;;;;;;;5017370;28;20701;-58
2022/02/17 05:45:06;;;;;;;12.63;3.97;;;;;;;;;;4970546;28;20720;-58
2022/02/17 05:47:33;;;;;;;18.17;3.60;;;;;;;;;;5005626;28;20266;-58
2022/02/17 05:50:02;;;;;;;16.03;3.50;;;;;;;;;;5003189;28;20256;-58
2022/02/17 05:52:29;;;;;;;13.27;3.43;;;;;;;;;;4996640;28;20190;-58
2022/02/17 05:54:55;;;;;;;16.07;3.67;;;;;;;;;;5019175;28;20694;-58
2022/02/17 05:57:22;;;;;;;10.13;3.97;;;;;;;;;;5016442;28;20202;-58
2022/02/17 05:59:48;;;;;;;13.83;4.13;;;;;;;;;;5015547;28;20189;-58
2022/02/17 06:02:14;;;;;;;10.77;3.73;;;;;;;;;;5012814;28;20190;-57
2022/02/17 06:04:43;;;;;;;11.23;3.70;;;;;;;;;;5017365;28;20193;-58
2022/02/17 06:07:10;;;;;;;10.97;4.13;;;;;;;;;;5017521;28;20182;-59
2022/02/17 06:09:36;;;;;;;14.10;3.70;;;;;;;;;;5000385;28;20201;-58
2022/02/17 06:12:06;;;;;;;13.27;4.57;;;;;;;;;;5004364;28;20635;-58
2022/02/17 06:14:32;;;;;;;21.03;4.87;;;;;;;;;;5004494;28;20612;-58
2022/02/17 06:16:58;;;;;;;15.57;4.23;;;;;;;;;;5001963;28;20187;-58
2022/02/17 06:19:24;;;;;;;12.30;4.30;;;;;;;;;;4996682;28;20198;-57
2022/02/17 06:21:53;;;;;;;10.70;3.60;;;;;;;;;;4994779;28;20218;-58
2022/02/17 06:24:23;;;;;;;14.57;4.47;;;;;;;;;;4997199;28;20213;-58
2022/02/17 06:26:49;;;;;;;17.23;5.17;;;;;;;;;;5024061;28;20225;-58
2022/02/17 06:29:16;;;;;;;17.63;5.37;;;;;;;;;;5010874;28;20177;-59
2022/02/17 06:31:45;;;;;;;13.77;4.47;;;;;;;;;;5008694;28;20216;-58
2022/02/17 06:34:12;;;;;;;15.07;5.03;;;;;;;;;;5028452;28;20202;-59
2022/02/17 06:36:38;;;;;;;14.97;4.40;;;;;;;;;;5033401;28;20194;-58
2022/02/17 06:39:08;;;;;;;13.10;3.80;;;;;;;;;;5005580;28;20183;-58
2022/02/17 06:41:35;;;;;;;13.03;3.93;;;;;;;;;;5005798;28;20189;-58
2022/02/17 06:44:04;;;;;;;15.43;3.43;;;;;;;;;;5032056;28;20316;-58
2022/02/17 06:46:30;;;;;;;12.67;4.50;;;;;;;;;;5010446;28;20190;-58
2022/02/17 06:48:56;;;;;;;19.70;4.53;;;;;;;;;;5018073;28;20193;-58
2022/02/17 06:51:23;;;;;;;11.97;4.27;;;;;;;;;;5023677;28;20186;-58
2022/02/17 06:53:49;;;;;;;12.13;3.67;;;;;;;;;;5026993;28;20185;-58
2022/02/17 06:56:15;;;;;;;14.00;3.77;;;;;;;;;;5024743;28;20255;-58
2022/02/17 06:58:42;;;;;;;10.77;4.20;;;;;;;;;;5021917;28;21054;-58
2022/02/17 07:01:08;;;;;;;15.53;5.03;;;;;;;;;;5004330;28;21073;-58
2022/02/17 07:03:35;;;;;;;11.43;3.90;;;;;;;;;;5016414;28;20663;-58
2022/02/17 07:06:01;;;;;;;13.02;4.35;;;;;;;;;;5003780;28;20427;-58
2022/02/17 07:08:28;;;;;;;16.57;4.30;;;;;;;;;;5034314;28;20188;-58
2022/02/17 07:10:54;;;;;;;11.47;4.83;;;;;;;;;;5026485;28;20191;-59
2022/02/17 07:13:21;;;;;;;15.33;3.93;;;;;;;;;;5033155;28;20185;-58
2022/02/17 07:15:48;;;;;;;17.93;3.60;;;;;;;;;;5024197;28;20823;-58
2022/02/17 07:18:15;;;;;;;14.97;4.57;;;;;;;;;;5028245;28;20232;-58
2022/02/17 07:20:43;;;;;;;11.77;3.77;;;;;;;;;;5024803;28;20220;-58
2022/02/17 07:23:10;;;;;;;14.43;3.60;;;;;;;;;;5030486;28;20212;-58
2022/02/17 07:25:36;;;;;;;13.97;4.63;;;;;;;;;;5027426;28;20533;-58
2022/02/17 07:28:02;;;;;;;13.67;5.23;;;;;;;;;;5027776;28;20697;-58
2022/02/17 07:30:29;;;;;;;10.77;3.63;;;;;;;;;;5003680;28;20255;-58
2022/02/17 07:32:56;;;;;;;7.60;3.40;;;;;;;;;;5006767;28;20190;-58
2022/02/17 07:35:22;;;;;;;12.70;4.57;;;;;;;;;;5016449;28;20214;-58
2022/02/17 07:37:48;;;;;;;10.27;3.53;;;;;;;;;;5047624;28;20216;-59
2022/02/17 07:40:15;;;;;;;13.07;4.53;;;;;;;;;;5029791;28;20181;-58
2022/02/17 07:42:43;;;;;;;11.50;4.23;;;;;;;;;;5036571;28;20173;-58
2022/02/17 07:45:09;;;;;;;8.90;3.50;;;;;;;;;;5036911;28;20573;-58
2022/02/17 07:47:45;;;;;;;11.30;3.47;;;;;;;;;;5009704;28;20182;-58
2022/02/17 07:50:15;;;;;;;9.50;3.43;;;;;;;;;;5011470;28;20243;-58
2022/02/17 07:52:42;;;;;;;13.63;3.90;;;;;;;;;;5023509;28;20186;-58
2022/02/17 07:55:08;;;;;;;13.02;4.10;;;;;;;;;;5021347;28;20461;-58
2022/02/17 07:57:34;;;;;;;14.97;3.80;;;;;;;;;;5009278;28;20198;-59
2022/02/17 08:00:01;;;;;;;10.40;4.07;;;;;;;;;;5016265;28;20179;-58
2022/02/17 08:02:27;;;;;;;9.50;3.43;;;;;;;;;;5024762;28;20679;-59
2022/02/17 08:04:57;;;;;;;11.63;3.80;;;;;;;;;;5015558;28;20339;-58
2022/02/17 08:07:23;;;;;;;11.83;3.47;;;;;;;;;;5001580;28;21077;-58
2022/02/17 08:09:53;;;;;;;17.77;4.00;;;;;;;;;;5004388;28;20697;-59
2022/02/17 08:12:20;;;;;;;12.50;3.93;;;;;;;;;;5039743;28;20181;-59
2022/02/17 08:14:46;;;;;;;8.43;3.57;;;;;;;;;;5021083;28;20208;-59
2022/02/17 08:17:12;;;;;;;11.80;3.63;;;;;;;;;;5021307;28;20231;-59
2022/02/17 08:19:39;;;;;;;8.53;3.37;;;;;;;;;;5024178;28;20181;-59
2022/02/17 08:22:11;;;;;;;11.57;3.73;;;;;;;;;;5016600;28;20185;-59
2022/02/17 08:24:37;;;;;;;7.97;3.53;;;;;;;;;;5019825;28;20185;-58
2022/02/17 08:27:04;;;;;;;13.03;3.57;;;;;;;;;;5026024;28;20233;-58
2022/02/17 08:29:31;;;;;;;13.40;4.07;;;;;;;;;;5009967;28;21306;-58
2022/02/17 08:31:58;;;;;;;15.33;3.83;;;;;;;;;;5021317;28;20575;-59
2022/02/17 08:34:24;;;;;;;14.30;4.67;;;;;;;;;;5020279;28;20216;-58
2022/02/17 08:36:52;;;;;;;10.03;4.00;;;;;;;;;;5020594;28;20231;-59
2022/02/17 08:39:18;;;;;;;13.03;3.57;;;;;;;;;;5019827;28;20305;-58
2022/02/17 08:41:44;;;;;;;11.70;3.40;;;;;;;;;;5025717;28;20185;-59
2022/02/17 08:44:11;;;;;;;10.77;3.20;;;;;;;;;;5007464;28;20189;-58
2022/02/17 08:46:37;;;;;;;10.43;3.10;;;;;;;;;;5043033;28;20210;-58
2022/02/17 08:49:08;;;;;;;9.13;2.77;;;;;;;;;;5020522;28;20186;-59
2022/02/17 08:51:35;;;;;;;10.43;3.90;;;;;;;;;;5015111;28;20666;-58
2022/02/17 08:54:02;;;;;;;10.73;3.57;;;;;;;;;;5023805;28;20217;-59
2022/02/17 08:56:29;;;;;;;7.27;2.93;;;;;;;;;;5033072;28;20194;-58
2022/02/17 08:58:56;;;;;;;6.57;2.47;;;;;;;;;;5037052;28;20248;-58
2022/02/17 09:01:23;;;;;;;7.50;2.80;;;;;;;;;;5019370;28;20194;-59
2022/02/17 09:03:49;;;;;;;7.20;2.77;;;;;;;;;;5007524;28;20560;-58
2022/02/17 09:06:15;;;;;;;5.67;2.70;;;;;;;;;;5019767;28;20178;-58
2022/02/17 09:08:44;;;;;;;12.03;2.53;;;;;;;;;;5024625;28;20209;-58
2022/02/17 09:11:12;;;;;;;12.17;3.57;;;;;;;;;;5024205;28;20652;-58
2022/02/17 09:13:38;;;;;;;8.40;3.07;;;;;;;;;;5026378;28;20184;-59
2022/02/17 09:16:05;;;;;;;10.07;3.30;;;;;;;;;;5016277;28;20218;-59
2022/02/17 09:18:32;;;;;;;9.43;3.33;;;;;;;;;;5023166;28;20186;-59
2022/02/17 09:21:00;;;;;;;9.90;3.17;;;;;;;;;;5022213;28;20181;-58
2022/02/17 09:23:27;;;;;;;13.10;3.37;;;;;;;;;;5023525;28;20178;-58
2022/02/17 09:25:53;;;;;;;8.37;2.67;;;;;;;;;;5016793;28;20700;-59
2022/02/17 09:28:19;;;;;;;15.50;3.73;;;;;;;;;;5016380;28;20938;-58
2022/02/17 09:30:45;;;;;;;10.07;3.20;;;;;;;;;;5017292;28;20178;-58
2022/02/17 09:33:11;;;;;;;10.00;3.50;;;;;;;;;;5020558;28;20213;-59
2022/02/17 09:35:38;;;;;;;13.67;3.50;;;;;;;;;;5022817;28;20210;-58
2022/02/17 09:38:04;;;;;;;14.50;3.57;;;;;;;;;;5017496;28;20277;-58
2022/02/17 09:40:30;;;;;;;6.30;2.60;;;;;;;;;;5001555;28;20665;-59
2022/02/17 09:42:57;;;;;;;5.97;2.47;;;;;;;;;;5025389;28;20684;-59
2022/02/17 09:45:25;;;;;;;8.57;2.67;;;;;;;;;;5018172;28;20776;-58
2022/02/17 09:47:52;;;;;;;9.27;4.00;;;;;;;;;;5012622;28;20187;-59
2022/02/17 09:50:18;;;;;;;10.27;2.70;;;;;;;;;;5029293;28;20204;-59
2022/02/17 09:52:47;;;;;;;8.67;2.60;;;;;;;;;;5019099;28;20189;-60
2022/02/17 09:55:16;;;;;;;6.13;2.77;;;;;;;;;;5010299;28;20265;-59
2022/02/17 09:57:42;;;;;;;10.77;2.93;;;;;;;;;;5017815;28;20242;-59
2022/02/17 10:00:10;;;;;;;7.43;2.67;;;;;;;;;;5020209;28;20181;-59
2022/02/17 10:02:37;;;;;;;6.97;2.77;;;;;;;;;;5009817;28;20325;-60
2022/02/17 10:05:07;;;;;;;7.70;2.37;;;;;;;;;;5012694;28;20189;-59
2022/02/17 10:07:34;;;;;;;16.47;3.10;;;;;;;;;;5013973;28;20179;-59
2022/02/17 10:10:01;;;;;;;9.93;2.90;;;;;;;;;;5023984;28;20188;-59
2022/02/17 10:12:47;;;;;;;9.93;3.47;;;;;;;;;;5036157;28;20357;-59
2022/02/17 10:15:14;;;;;;;7.80;2.53;;;;;;;;;;5018656;28;20260;-58
2022/02/17 10:17:59;;;;;;;13.87;4.07;;;;;;;;;;5000128;28;20187;-59
2022/02/17 10:20:26;;;;;;;12.33;2.70;;;;;;;;;;5035929;28;20209;-59
2022/02/17 10:22:53;;;;;;;8.90;2.47;;;;;;;;;;4999326;28;20629;-59
2022/02/17 10:25:22;;;;;;;11.23;3.83;;;;;;;;;;5029742;28;20187;-59
2022/02/17 10:27:49;;;;;;;8.87;2.50;;;;;;;;;;5016601;28;20564;-59
2022/02/17 10:30:18;;;;;;;5.97;2.50;;;;;;;;;;5010182;28;20642;-59
2022/02/17 10:32:56;;;;;;;8.80;2.47;;;;;;;;;;5012017;28;20186;-60
2022/02/17 10:35:22;;;;;;;3.93;1.63;;;;;;;;;;5015369;28;20208;-60
2022/02/17 10:37:50;;;;;;;5.87;2.13;;;;;;;;;;5021018;28;20189;-60
2022/02/17 10:40:17;;;;;;;7.73;2.00;;;;;;;;;;4988379;28;20188;-59
2022/02/17 10:42:43;;;;;;;5.47;2.20;;;;;;;;;;5021461;28;20364;-60
2022/02/17 10:45:22;;;;;;;5.63;2.17;;;;;;;;;;5012515;28;20183;-59
2022/02/17 10:47:48;;;;;;;5.00;2.30;;;;;;;;;;5013794;28;20186;-60
2022/02/17 10:50:18;;;;;;;7.27;2.37;;;;;;;;;;5024697;28;20178;-59
2022/02/17 10:52:44;;;;;;;6.83;2.10;;;;;;;;;;5020659;28;20186;-59
2022/02/17 10:55:18;;;;;;;5.83;2.00;;;;;;;;;;5018017;28;20665;-60
2022/02/17 10:57:45;;;;;;;5.30;1.63;;;;;;;;;;5022033;28;20197;-60
2022/02/17 11:00:17;;;;;;;10.60;2.30;;;;;;;;;;5024369;28;20187;-60
2022/02/17 11:02:44;;;;;;;3.30;1.53;;;;;;;;;;5032331;28;20185;-60
2022/02/17 11:05:11;;;;;;;4.40;2.00;;;;;;;;;;4986342;28;20737;-59
2022/02/17 11:07:41;;;;;;;5.87;2.00;;;;;;;;;;5019396;28;20182;-60
2022/02/17 11:10:09;;;;;;;8.40;3.00;;;;;;;;;;5016384;28;20265;-60
2022/02/17 11:12:37;;;;;;;6.80;2.20;;;;;;;;;;5018067;28;20220;-59
2022/02/17 11:15:05;;;;;;;10.03;2.67;;;;;;;;;;5000913;28;20209;-60
2022/02/17 11:17:38;;;;;;;9.77;2.33;;;;;;;;;;5018041;28;20183;-59
2022/02/17 11:20:17;;;;;;;7.03;2.47;;;;;;;;;;5019404;28;20217;-60
2022/02/17 11:22:43;;;;;;;6.30;1.90;;;;;;;;;;5012013;28;20181;-60
2022/02/17 11:25:12;;;;;;;7.30;2.50;;;;;;;;;;5019725;28;20209;-59
2022/02/17 11:28:03;;;;;;;7.80;2.83;;;;;;;;;;5027262;28;20256;-60
2022/02/17 11:30:31;;;;;;;4.47;2.27;;;;;;;;;;5020712;28;20657;-60
2022/02/17 11:33:17;;;;;;;5.37;2.20;;;;;;;;;;5017922;28;20586;-59
2022/02/17 11:35:43;;;;;;;6.30;1.90;;;;;;;;;;5016183;28;20228;-59
2022/02/17 11:38:42;;;;;;;8.13;2.00;;;;;;;;;;5019937;28;20262;-60
2022/02/17 11:41:10;;;;;;;6.50;2.07;;;;;;;;;;4999306;28;20755;-60
2022/02/17 11:43:38;;;;;;;4.20;2.10;;;;;;;;;;5023405;28;20685;-59
2022/02/17 11:46:04;;;;;;;4.03;2.17;;;;;;;;;;5025858;28;20293;-60
2022/02/17 11:48:33;;;;;;;4.43;2.17;;;;;;;;;;5020168;28;20243;-59
2022/02/17 11:51:15;;;;;;;4.37;1.63;;;;;;;;;;5024012;28;20210;-59
2022/02/17 11:53:45;;;;;;;6.00;2.23;;;;;;;;;;5017399;28;20231;-59
2022/02/17 11:56:21;;;;;;;7.87;2.13;;;;;;;;;;5019472;28;20241;-59
2022/02/17 11:58:49;;;;;;;3.30;1.83;;;;;;;;;;5018086;28;20178;-58
2022/02/17 12:01:25;;;;;;;5.23;1.70;;;;;;;;;;5019259;28;20936;-58
2022/02/17 12:04:09;;;;;;;4.03;1.60;;;;;;;;;;5034354;28;20188;-60
2022/02/17 12:06:38;;;;;;;5.63;1.77;;;;;;;;;;5023057;28;20666;-59
2022/02/17 12:09:08;;;;;;;5.07;1.83;;;;;;;;;;5026624;28;20177;-59
2022/02/17 12:11:36;;;;;;;3.43;1.33;;;;;;;;;;5021328;28;20277;-59
2022/02/17 12:14:05;;;;;;;3.53;1.60;;;;;;;;;;5024317;28;20577;-59
2022/02/17 12:16:37;;;;;;;4.97;1.90;;;;;;;;;;5005022;28;20183;-60
2022/02/17 12:19:14;;;;;;;6.77;1.83;;;;;;;;;;5005709;28;20221;-59
2022/02/17 12:21:43;;;;;;;3.90;1.87;;;;;;;;;;5020928;28;20629;-59
2022/02/17 12:24:19;;;;;;;3.00;1.37;;;;;;;;;;5020722;28;20205;-59
2022/02/17 12:26:47;;;;;;;6.03;1.90;;;;;;;;;;5005189;28;20228;-58
2022/02/17 12:29:20;;;;;;;3.87;1.63;;;;;;;;;;5003638;28;20608;-59
2022/02/17 12:31:50;;;;;;;6.57;1.73;;;;;;;;;;5019947;28;20184;-59
2022/02/17 12:34:19;;;;;;;2.87;1.90;;;;;;;;;;5027470;28;20202;-60
2022/02/17 12:36:45;;;;;;;2.20;1.20;;;;;;;;;;5021401;28;20240;-59
2022/02/17 12:39:12;;;;;;;3.97;1.90;;;;;;;;;;5020880;28;20239;-60
2022/02/17 12:41:38;;;;;;;5.73;1.63;;;;;;;;;;5001362;28;20178;-59
2022/02/17 12:44:06;;;;;;;5.37;1.40;;;;;;;;;;5024509;28;20244;-60
2022/02/17 12:46:38;;;;;;;3.07;2.00;;;;;;;;;;5022082;28;20628;-60
2022/02/17 12:49:08;;;;;;;5.47;2.13;;;;;;;;;;4999060;28;20581;-60
2022/02/17 12:51:39;;;;;;;2.50;1.97;;;;;;;;;;5014765;28;20193;-60
2022/02/17 12:54:08;;;;;;;4.47;1.60;;;;;;;;;;5039163;28;20661;-60
2022/02/17 12:56:38;;;;;;;3.40;1.67;;;;;;;;;;5024067;28;20189;-59
2022/02/17 12:59:06;;;;;;;5.90;1.73;;;;;;;;;;5022485;28;20182;-60
2022/02/17 13:01:33;;;;;;;10.70;1.83;;;;;;;;;;5025219;28;20233;-60
2022/02/17 13:03:59;;;;;;;4.10;1.83;;;;;;;;;;5022945;28;20185;-60
2022/02/17 13:06:26;;;;;;;5.77;2.03;;;;;;;;;;5025819;28;20190;-59
2022/02/17 13:08:55;;;;;;;3.60;1.83;;;;;;;;;;5006351;28;20203;-60
2022/02/17 13:11:24;;;;;;;6.03;1.77;;;;;;;;;;5023086;28;20185;-60
2022/02/17 13:14:04;;;;;;;6.53;2.03;;;;;;;;;;5019651;28;20191;-60
2022/02/17 13:16:31;;;;;;;7.43;2.00;;;;;;;;;;5026421;28;20182;-59
2022/02/17 13:19:00;;;;;;;4.87;2.00;;;;;;;;;;5005309;28;20558;-59
2022/02/17 13:21:29;;;;;;;4.77;2.30;;;;;;;;;;5022577;28;20187;-60
2022/02/17 13:24:13;;;;;;;4.20;2.07;;;;;;;;;;5006025;28;20248;-60
2022/02/17 13:26:40;;;;;;;6.73;2.07;;;;;;;;;;5020553;28;20217;-60
2022/02/17 13:29:08;;;;;;;8.33;2.07;;;;;;;;;;5019683;28;20619;-60
2022/02/17 13:31:36;;;;;;;13.00;2.30;;;;;;;;;;5017470;28;20193;-60
2022/02/17 13:34:09;;;;;;;6.10;2.03;;;;;;;;;;5017939;28;20277;-60
2022/02/17 13:36:38;;;;;;;5.80;2.03;;;;;;;;;;5020011;28;20724;-60
2022/02/17 13:39:04;;;;;;;3.80;2.17;;;;;;;;;;5003653;28;20190;-61
2022/02/17 13:41:31;;;;;;;6.17;2.20;;;;;;;;;;5034345;28;20555;-60
2022/02/17 13:43:58;;;;;;;5.97;2.40;;;;;;;;;;5014442;28;20648;-60
2022/02/17 13:46:25;;;;;;;3.40;1.70;;;;;;;;;;5020660;28;20213;-59
2022/02/17 13:48:52;;;;;;;4.30;1.87;;;;;;;;;;5008977;28;20260;-59
2022/02/17 13:51:21;;;;;;;4.50;2.00;;;;;;;;;;5020421;28;20541;-60
2022/02/17 13:53:57;;;;;;;7.40;2.17;;;;;;;;;;5014935;28;20174;-60
2022/02/17 13:56:24;;;;;;;5.77;2.17;;;;;;;;;;4997416;28;20241;-61
2022/02/17 13:59:02;;;;;;;6.83;1.80;;;;;;;;;;5016140;28;20185;-61
2022/02/17 14:01:45;;;;;;;3.37;1.83;;;;;;;;;;5008263;28;20827;-60
2022/02/17 14:04:26;;;;;;;2.97;2.00;;;;;;;;;;5012312;28;20193;-60
2022/02/17 14:07:05;;;;;;;4.33;1.80;;;;;;;;;;5015573;28;20185;-60
2022/02/17 14:09:32;;;;;;;5.37;2.20;;;;;;;;;;5005324;28;20177;-59
2022/02/17 14:11:59;;;;;;;7.27;2.20;;;;;;;;;;5024336;28;20687;-60
2022/02/17 14:14:25;;;;;;;5.10;2.43;;;;;;;;;;5019192;28;20229;-60
2022/02/17 14:16:52;;;;;;;6.23;2.13;;;;;;;;;;5013975;28;20646;-59
2022/02/17 14:19:19;;;;;;;4.17;1.83;;;;;;;;;;5017549;28;20193;-62
2022/02/17 14:21:46;;;;;;;5.87;2.10;;;;;;;;;;5014857;28;20182;-59
2022/02/17 14:24:13;;;;;;;6.27;2.10;;;;;;;;;;5034977;28;20184;-57
2022/02/17 14:26:39;;;;;;;5.87;1.97;;;;;;;;;;5003431;28;20257;-60
2022/02/17 14:29:06;;;;;;;10.67;2.60;;;;;;;;;;5015151;28;20509;-59
2022/02/17 14:31:33;;;;;;;8.03;2.67;;;;;;;;;;5009943;28;20174;-59
2022/02/17 14:33:59;;;;;;;7.97;2.87;;;;;;;;;;4995232;28;20686;-59
2022/02/17 14:36:26;;;;;;;4.87;1.97;;;;;;;;;;4995737;28;20187;-59
2022/02/17 14:38:52;;;;;;;5.67;2.23;;;;;;;;;;5005964;28;20205;-59
2022/02/17 14:41:19;;;;;;;6.73;2.73;;;;;;;;;;5001188;28;20185;-59
2022/02/17 14:43:45;;;;;;;8.63;2.33;;;;;;;;;;4988448;28;20174;-59
2022/02/17 14:46:15;;;;;;;6.20;2.00;;;;;;;;;;4980721;28;20186;-59